createdAt,value
2019-03-11T00:01:41.338Z,7.40
2019-03-11T00:04:12.374Z,8.40
2019-03-11T00:06:44.430Z,8.07
2019-03-11T00:09:14.934Z,10.07
2019-03-11T00:11:45.346Z,8.17
2019-03-11T00:14:15.784Z,6.80
2019-03-11T00:16:46.179Z,7.97
2019-03-11T00:19:16.701Z,7.17
2019-03-11T00:21:47.091Z,6.27
2019-03-11T00:24:17.508Z,6.93
2019-03-11T00:26:47.959Z,6.80
2019-03-11T00:29:19.701Z,6.53
2019-03-11T00:31:50.128Z,6.63
2019-03-11T00:34:20.545Z,6.43
2019-03-11T00:36:51.044Z,7.23
2019-03-11T00:39:21.446Z,7.20
2019-03-11T00:41:51.944Z,6.47
2019-03-11T00:44:22.409Z,6.63
2019-03-11T00:46:52.999Z,6.70
2019-03-11T00:49:23.459Z,6.43
2019-03-11T00:51:53.898Z,6.50
2019-03-11T00:54:24.313Z,7.30
2019-03-11T00:56:54.741Z,7.03
2019-03-11T00:59:25.176Z,6.90
2019-03-11T01:01:55.624Z,7.20
2019-03-11T01:04:26.079Z,7.40
2019-03-11T01:06:56.466Z,8.63
2019-03-11T01:09:26.832Z,9.00
2019-03-11T01:11:57.297Z,9.83
2019-03-11T01:14:27.722Z,10.63
2019-03-11T01:16:59.631Z,12.00
2019-03-11T01:19:30.136Z,11.60
2019-03-11T01:22:00.583Z,11.03
2019-03-11T01:24:31.000Z,13.70
2019-03-11T01:27:01.452Z,10.97
2019-03-11T01:29:31.834Z,10.00
2019-03-11T01:32:02.340Z,9.90
2019-03-11T01:34:34.030Z,9.67
2019-03-11T01:37:04.491Z,10.10
2019-03-11T01:39:34.903Z,10.30
2019-03-11T01:42:05.370Z,11.47
2019-03-11T01:44:35.735Z,11.97
2019-03-11T01:47:06.172Z,11.83
2019-03-11T01:49:36.641Z,12.27
2019-03-11T01:52:07.081Z,11.77
2019-03-11T01:54:37.533Z,11.13
2019-03-11T01:57:07.948Z,12.17
2019-03-11T01:59:38.377Z,12.20
2019-03-11T02:02:09.933Z,11.30
2019-03-11T02:04:40.339Z,10.20
2019-03-11T02:07:10.764Z,9.67
2019-03-11T02:09:42.744Z,7.70
2019-03-11T02:12:13.208Z,7.20
2019-03-11T02:14:43.671Z,7.03
2019-03-11T02:17:14.092Z,6.87
2019-03-11T02:19:44.588Z,6.30
2019-03-11T02:22:14.988Z,5.57
2019-03-11T02:24:45.466Z,5.07
2019-03-11T02:27:15.848Z,5.10
2019-03-11T02:29:46.220Z,4.63
2019-03-11T02:32:16.834Z,5.23
2019-03-11T02:34:47.181Z,4.80
2019-03-11T02:37:17.609Z,5.00
2019-03-11T02:39:47.957Z,5.97
2019-03-11T02:42:18.436Z,5.10
2019-03-11T02:44:48.848Z,4.90
2019-03-11T02:47:19.234Z,4.67
2019-03-11T02:49:49.759Z,4.40
2019-03-11T02:52:20.204Z,4.07
2019-03-11T02:54:50.656Z,3.77
2019-03-11T02:57:21.054Z,3.77
2019-03-11T02:59:51.480Z,3.80
2019-03-11T03:02:23.439Z,4.17
2019-03-11T03:04:55.455Z,4.00
2019-03-11T03:07:25.827Z,3.93
2019-03-11T03:09:56.298Z,4.30
2019-03-11T03:12:26.742Z,4.85
2019-03-11T03:14:57.236Z,3.70
2019-03-11T03:17:27.634Z,4.00
2019-03-11T03:19:58.286Z,3.53
2019-03-11T03:22:28.674Z,3.90
2019-03-11T03:24:59.142Z,4.50
2019-03-11T03:27:31.627Z,3.77
2019-03-11T03:30:02.042Z,6.70
2019-03-11T03:32:32.435Z,4.90
2019-03-11T03:35:03.048Z,3.40
2019-03-11T03:37:33.382Z,3.47
2019-03-11T03:40:05.000Z,3.80
2019-03-11T03:42:35.483Z,3.40
2019-03-11T03:45:27.693Z,3.97
2019-03-11T03:47:58.522Z,3.07
2019-03-11T03:50:34.349Z,5.15
2019-03-11T03:53:04.716Z,4.67
2019-03-11T03:55:35.177Z,3.60
2019-03-11T03:58:05.609Z,3.60
2019-03-11T04:00:36.154Z,3.30
2019-03-11T04:03:06.568Z,3.30
2019-03-11T04:05:37.023Z,3.57
2019-03-11T04:08:07.471Z,3.23
2019-03-11T04:10:39.370Z,3.73
2019-03-11T04:13:11.374Z,3.23
2019-03-11T04:15:42.465Z,4.57
2019-03-11T04:18:13.541Z,3.90
2019-03-11T04:20:44.345Z,3.10
2019-03-11T04:23:14.822Z,4.00
2019-03-11T04:25:45.235Z,4.40
2019-03-11T04:28:17.600Z,4.23
2019-03-11T04:30:48.142Z,4.00
2019-03-11T04:33:18.594Z,4.07
2019-03-11T04:35:49.394Z,4.13
2019-03-11T04:38:19.805Z,4.93
2019-03-11T04:40:51.582Z,5.20
2019-03-11T04:43:24.986Z,5.70
2019-03-11T04:45:55.434Z,4.90
2019-03-11T04:48:25.900Z,4.50
2019-03-11T04:50:56.344Z,4.10
2019-03-11T04:53:26.728Z,4.40
2019-03-11T04:55:57.205Z,4.80
2019-03-11T04:58:27.675Z,4.60
2019-03-11T05:00:59.657Z,4.60
2019-03-11T05:03:32.063Z,6.30
2019-03-11T05:06:04.090Z,5.33
2019-03-11T05:08:36.136Z,5.00
2019-03-11T05:11:06.932Z,4.53
2019-03-11T05:13:42.880Z,4.80
2019-03-11T05:16:13.446Z,4.70
2019-03-11T05:18:51.529Z,4.47
2019-03-11T05:21:25.482Z,4.87
2019-03-11T05:23:56.892Z,4.70
2019-03-11T05:26:27.374Z,4.17
2019-03-11T05:28:58.151Z,4.20
2019-03-11T05:31:29.178Z,3.97
2019-03-11T05:33:59.731Z,3.97
2019-03-11T05:39:56.077Z,4.60
2019-03-11T05:42:31.826Z,4.20
2019-03-11T05:45:04.398Z,4.73
2019-03-11T05:47:34.993Z,4.43
2019-03-11T05:50:14.874Z,4.63
2019-03-11T05:52:45.487Z,4.00
2019-03-11T05:55:15.967Z,4.30
2019-03-11T05:57:46.388Z,4.80
2019-03-11T06:00:29.979Z,6.13
2019-03-11T06:03:05.130Z,4.97
2019-03-11T06:05:35.684Z,5.30
2019-03-11T06:08:07.444Z,5.57
2019-03-11T06:10:39.064Z,7.00
2019-03-11T06:13:09.616Z,6.43
2019-03-11T06:15:40.105Z,5.70
2019-03-11T06:18:12.596Z,5.70
2019-03-11T06:20:44.711Z,7.10
2019-03-11T06:23:15.503Z,7.53
2019-03-11T06:25:49.765Z,6.47
2019-03-11T06:28:30.948Z,6.73
2019-03-11T06:31:01.530Z,5.97
2019-03-11T06:33:32.362Z,5.60
2019-03-11T06:36:04.741Z,5.30
2019-03-11T06:38:37.932Z,7.60
2019-03-11T06:41:08.401Z,5.50
2019-03-11T06:43:39.114Z,5.30
2019-03-11T06:46:11.716Z,5.00
2019-03-11T06:48:44.327Z,5.53
2019-03-11T06:51:15.661Z,4.47
2019-03-11T06:53:46.703Z,6.00
2019-03-11T06:56:19.253Z,4.57
2019-03-11T06:58:49.825Z,3.10
2019-03-11T07:01:20.418Z,3.60
2019-03-11T07:03:54.815Z,2.50
2019-03-11T07:06:25.451Z,3.20
2019-03-11T07:08:55.868Z,2.90
2019-03-11T07:11:28.217Z,2.70
2019-03-11T07:14:05.291Z,2.90
2019-03-11T07:16:39.328Z,3.10
2019-03-11T07:19:10.956Z,4.30
2019-03-11T07:21:44.816Z,4.20
2019-03-11T07:24:18.533Z,3.60
2019-03-11T07:26:49.194Z,3.70
2019-03-11T07:29:21.075Z,4.07
2019-03-11T07:31:52.562Z,3.70
2019-03-11T07:34:23.097Z,3.77
2019-03-11T07:36:56.394Z,3.53
2019-03-11T07:39:43.277Z,3.40
2019-03-11T07:42:17.234Z,3.33
2019-03-11T07:44:47.711Z,3.50
2019-03-11T07:47:18.172Z,3.10
2019-03-11T07:49:50.157Z,3.50
2019-03-11T07:52:22.263Z,3.27
2019-03-11T07:54:55.673Z,3.50
2019-03-11T08:00:32.045Z,4.33
2019-03-11T08:03:09.346Z,3.40
2019-03-11T08:05:41.500Z,4.97
2019-03-11T08:08:15.243Z,3.67
2019-03-11T08:10:53.638Z,3.93
2019-03-11T08:13:27.580Z,3.30
2019-03-11T08:16:01.958Z,3.73
2019-03-11T08:18:47.818Z,4.20
2019-03-11T08:21:27.513Z,3.87
2019-03-11T08:23:58.218Z,3.37
2019-03-11T08:26:28.905Z,3.90
2019-03-11T08:28:59.256Z,4.17
2019-03-11T08:31:30.650Z,3.47
2019-03-11T08:34:03.699Z,4.10
2019-03-11T08:36:37.189Z,4.53
2019-03-11T08:39:14.718Z,4.07
2019-03-11T08:41:45.806Z,4.37
2019-03-11T08:44:16.316Z,4.47
2019-03-11T08:46:48.764Z,3.93
2019-03-11T08:49:22.215Z,6.83
2019-03-11T08:51:52.653Z,4.80
2019-03-11T08:54:23.070Z,3.90
2019-03-11T08:56:58.737Z,3.97
2019-03-11T08:59:31.487Z,4.23
2019-03-11T09:02:01.952Z,4.13
2019-03-11T09:04:34.604Z,4.30
2019-03-11T09:07:07.107Z,4.30
2019-03-11T09:09:40.478Z,4.50
2019-03-11T09:12:11.394Z,4.60
2019-03-11T09:14:43.606Z,4.10
2019-03-11T09:17:14.185Z,5.63
2019-03-11T09:19:44.607Z,4.70
2019-03-11T09:22:15.228Z,4.10
2019-03-11T09:24:45.716Z,4.63
2019-03-11T09:27:16.447Z,6.10
2019-03-11T09:29:49.241Z,5.23
2019-03-11T09:32:19.771Z,5.57
2019-03-11T09:34:50.191Z,4.60
2019-03-11T09:37:23.362Z,5.17
2019-03-11T09:39:53.808Z,5.40
2019-03-11T09:42:24.276Z,4.90
2019-03-11T09:44:54.924Z,4.60
2019-03-11T09:47:25.405Z,6.07
2019-03-11T09:49:57.392Z,6.93
2019-03-11T09:52:29.986Z,5.80
2019-03-11T09:55:00.703Z,5.80
2019-03-11T09:57:34.183Z,5.93
2019-03-11T10:00:10.128Z,5.33
2019-03-11T10:02:51.235Z,6.07
2019-03-11T10:05:22.580Z,5.70
2019-03-11T10:07:54.610Z,5.83
2019-03-11T10:10:28.470Z,5.70
2019-03-11T10:12:59.366Z,5.60
2019-03-11T10:15:31.780Z,6.67
2019-03-11T10:18:07.009Z,6.47
2019-03-11T10:20:38.459Z,6.80
2019-03-11T10:23:17.448Z,6.90
2019-03-11T10:25:57.510Z,5.90
2019-03-11T10:28:34.282Z,5.57
2019-03-11T10:31:06.773Z,5.97
2019-03-11T10:33:37.729Z,5.77
2019-03-11T10:36:09.625Z,5.40
2019-03-11T10:38:41.064Z,5.67
2019-03-11T10:41:13.486Z,5.80
2019-03-11T10:43:44.583Z,5.87
2019-03-11T10:46:16.072Z,6.13
2019-03-11T10:48:48.251Z,6.80
2019-03-11T10:51:28.254Z,6.17
2019-03-11T10:54:03.804Z,6.73
2019-03-11T10:56:38.172Z,7.20
2019-03-11T10:59:09.521Z,6.43
2019-03-11T11:01:41.621Z,7.75
2019-03-11T11:04:12.185Z,8.30
2019-03-11T11:06:42.669Z,8.70
2019-03-11T11:09:14.092Z,7.77
2019-03-11T11:11:44.970Z,7.63
2019-03-11T11:14:16.682Z,8.57
2019-03-11T11:16:47.312Z,6.93
2019-03-11T11:19:20.234Z,6.67
2019-03-11T11:21:50.922Z,8.23
2019-03-11T11:24:21.415Z,8.43
2019-03-11T11:26:56.491Z,9.63
2019-03-11T11:29:27.459Z,7.93
2019-03-11T11:31:58.172Z,7.30
2019-03-11T11:34:28.773Z,6.97
2019-03-11T11:36:59.370Z,7.90
2019-03-11T11:39:30.464Z,7.13
2019-03-11T11:42:02.684Z,6.73
2019-03-11T11:44:35.199Z,6.17
2019-03-11T11:47:09.738Z,5.63
2019-03-11T11:49:45.584Z,6.00
2019-03-11T11:52:16.383Z,4.90
2019-03-11T11:54:49.505Z,5.63
2019-03-11T11:57:20.834Z,5.43
2019-03-11T11:59:54.411Z,6.03
2019-03-11T12:02:27.034Z,6.53
2019-03-11T12:04:58.396Z,6.33
2019-03-11T12:07:29.097Z,8.27
2019-03-11T12:09:59.628Z,7.17
2019-03-11T12:12:31.807Z,6.27
2019-03-11T12:15:03.902Z,6.10
2019-03-11T12:17:34.468Z,6.90
2019-03-11T12:20:11.168Z,6.27
2019-03-11T12:22:43.717Z,6.93
2019-03-11T12:25:22.654Z,6.10
2019-03-11T12:27:57.814Z,4.93
2019-03-11T12:30:34.611Z,5.73
2019-03-11T12:33:09.201Z,4.40
2019-03-11T12:35:40.176Z,4.53
2019-03-11T12:38:10.846Z,4.70
2019-03-11T12:40:41.318Z,5.60
2019-03-11T12:43:14.085Z,4.60
2019-03-11T12:45:50.602Z,4.07
2019-03-11T12:48:24.139Z,5.03
2019-03-11T12:50:55.784Z,3.43
2019-03-11T12:53:27.909Z,4.60
2019-03-11T12:55:58.487Z,4.60
2019-03-11T12:58:41.429Z,4.83
2019-03-11T13:01:09.373Z,4.90
2019-03-11T13:03:39.944Z,5.10
2019-03-11T13:06:11.913Z,5.00
2019-03-11T13:09:07.528Z,4.83
2019-03-11T13:11:57.882Z,5.00
2019-03-11T13:14:31.595Z,4.13
2019-03-11T13:17:03.293Z,4.47
2019-03-11T13:19:33.770Z,5.00
2019-03-11T13:22:05.373Z,4.77
2019-03-11T13:24:38.873Z,5.00
2019-03-11T13:27:10.844Z,5.83
2019-03-11T13:29:41.600Z,4.73
2019-03-11T13:32:12.195Z,3.60
2019-03-11T13:34:44.158Z,3.20
2019-03-11T13:37:15.158Z,2.80
2019-03-11T13:39:45.678Z,2.67
2019-03-11T13:42:17.913Z,2.20
2019-03-11T13:44:48.699Z,2.60
2019-03-11T13:47:25.442Z,2.30
2019-03-11T13:50:07.398Z,2.77
2019-03-11T13:52:38.137Z,3.37
2019-03-11T13:55:11.607Z,3.17
2019-03-11T13:57:46.910Z,2.77
2019-03-11T14:00:19.352Z,2.47
2019-03-11T14:02:55.921Z,2.67
2019-03-11T14:05:39.960Z,2.00
2019-03-11T14:11:15.851Z,2.30
2019-03-11T14:14:09.101Z,2.53
2019-03-11T14:16:52.336Z,2.70
2019-03-11T14:19:25.793Z,2.20
2019-03-11T14:22:00.868Z,2.40
2019-03-11T14:24:37.912Z,2.60
2019-03-11T14:27:08.628Z,3.97
2019-03-11T14:29:40.631Z,3.60
2019-03-11T14:32:11.374Z,3.10
2019-03-11T14:34:59.830Z,3.30
2019-03-11T14:37:31.833Z,3.00
2019-03-11T14:40:03.947Z,2.80
2019-03-11T14:42:36.394Z,5.03
2019-03-11T14:45:22.236Z,2.90
2019-03-11T15:00:30.309Z,2.90
2019-03-11T15:03:01.875Z,2.70
2019-03-11T15:05:34.307Z,3.17
2019-03-11T15:08:12.559Z,1.60
2019-03-11T15:11:02.883Z,2.10
2019-03-11T15:13:36.751Z,1.90
2019-03-11T15:16:08.944Z,2.60
2019-03-11T15:18:39.543Z,2.70
2019-03-11T15:21:14.577Z,1.60
2019-03-11T15:23:50.847Z,2.42
2019-03-11T15:29:58.575Z,2.07
2019-03-11T15:32:43.722Z,2.63
2019-03-11T15:35:24.019Z,2.60
2019-03-11T15:38:03.034Z,1.90
2019-03-11T15:40:36.533Z,2.10
2019-03-11T15:43:10.354Z,2.27
2019-03-11T15:48:49.792Z,2.53
2019-03-11T15:51:21.821Z,2.60
2019-03-11T15:53:55.155Z,1.90
2019-03-11T15:56:27.137Z,2.30
2019-03-11T15:58:58.794Z,2.30
2019-03-11T16:01:29.360Z,2.40
2019-03-11T16:03:59.843Z,2.10
2019-03-11T16:06:32.697Z,2.10
2019-03-11T16:09:04.754Z,1.93
2019-03-11T16:11:35.403Z,2.20
2019-03-11T16:14:06.118Z,1.80
2019-03-11T16:16:36.692Z,2.07
2019-03-11T16:19:08.681Z,2.60
2019-03-11T16:22:00.379Z,2.03
2019-03-11T16:24:37.998Z,2.60
2019-03-11T16:33:14.376Z,2.00
2019-03-11T16:35:46.591Z,2.00
2019-03-11T16:38:17.233Z,2.00
2019-03-11T16:40:49.481Z,2.50
2019-03-11T16:43:21.644Z,2.27
2019-03-11T16:45:56.830Z,2.50
2019-03-11T16:48:34.472Z,2.40
2019-03-11T16:51:09.616Z,2.37
2019-03-11T16:53:40.515Z,2.83
2019-03-11T16:56:11.099Z,2.20
2019-03-11T16:58:41.814Z,2.30
2019-03-11T17:01:13.284Z,2.50
2019-03-11T17:03:47.144Z,2.53
2019-03-11T17:06:18.053Z,2.07
2019-03-11T17:08:48.581Z,2.70
2019-03-11T17:11:26.689Z,3.13
2019-03-11T17:13:59.703Z,2.87
2019-03-11T17:16:32.263Z,2.80
2019-03-11T17:19:06.375Z,2.80
2019-03-11T17:21:39.897Z,3.00
2019-03-11T17:27:07.996Z,2.63
2019-03-11T17:29:44.673Z,2.80
2019-03-11T17:32:15.154Z,2.60
2019-03-11T17:34:48.227Z,2.77
2019-03-11T17:37:20.802Z,3.97
2019-03-11T17:39:54.539Z,3.43
2019-03-11T17:42:48.407Z,4.03
2019-03-11T17:45:18.747Z,4.80
2019-03-11T17:47:49.901Z,5.00
2019-03-11T17:50:23.507Z,5.03
2019-03-11T17:52:57.298Z,4.40
2019-03-11T17:58:57.369Z,3.70
2019-03-11T18:04:31.939Z,3.40
2019-03-11T18:07:14.103Z,3.80
2019-03-11T18:09:44.766Z,4.27
2019-03-11T18:12:17.534Z,6.30
2019-03-11T18:14:50.498Z,6.17
2019-03-11T18:17:24.090Z,6.10
2019-03-11T18:20:04.817Z,6.97
2019-03-11T18:22:39.334Z,6.07
2019-03-11T18:25:14.392Z,6.03
2019-03-11T18:27:46.646Z,6.20
2019-03-11T18:30:25.633Z,6.13
2019-03-11T18:32:59.373Z,5.93
2019-03-11T18:35:29.987Z,6.57
2019-03-11T18:38:06.116Z,6.50
2019-03-11T18:40:54.318Z,7.13
2019-03-11T18:43:42.192Z,7.20
2019-03-11T18:46:04.509Z,7.50
2019-03-11T18:48:41.211Z,7.03
2019-03-11T18:51:13.992Z,6.43
2019-03-11T18:53:51.150Z,6.10
2019-03-11T18:56:23.142Z,5.87
2019-03-11T18:58:55.055Z,6.83
2019-03-11T19:01:27.803Z,6.50
2019-03-11T19:04:04.452Z,8.70
2019-03-11T19:06:39.288Z,8.17
2019-03-11T19:09:10.066Z,9.43
2019-03-11T19:11:43.566Z,10.17
2019-03-11T19:14:16.789Z,10.40
2019-03-11T19:16:48.082Z,9.20
2019-03-11T19:19:24.742Z,8.53
2019-03-11T19:21:55.467Z,4.90
2019-03-11T19:24:26.011Z,4.80
2019-03-11T19:27:01.121Z,3.47
2019-03-11T19:29:50.620Z,3.20
2019-03-11T19:32:23.335Z,2.90
2019-03-11T19:35:01.016Z,2.90
2019-03-11T19:37:41.714Z,2.70
2019-03-11T19:40:17.809Z,2.40
2019-03-11T19:42:58.230Z,2.60
2019-03-11T19:45:30.215Z,2.65
2019-03-11T19:48:04.863Z,3.07
2019-03-11T19:50:41.728Z,3.47
2019-03-11T19:53:20.257Z,3.80
2019-03-11T19:59:03.676Z,4.83
2019-03-11T20:01:45.999Z,6.00
2019-03-11T20:07:51.902Z,6.37
2019-03-11T20:17:17.474Z,5.50
2019-03-11T20:26:39.681Z,2.97
2019-03-11T20:29:10.697Z,2.97
2019-03-11T20:31:46.337Z,3.60
2019-03-11T20:34:21.074Z,3.07
2019-03-11T20:36:51.767Z,2.63
2019-03-11T20:39:37.510Z,2.57
2019-03-11T20:42:09.228Z,3.23
2019-03-11T20:44:43.073Z,3.03
2019-03-11T22:04:29.402Z,4.30
2019-03-11T22:07:02.529Z,5.03
2019-03-11T22:09:36.069Z,4.40
2019-03-11T22:12:10.484Z,5.63
2019-03-11T22:14:40.246Z,4.90
2019-03-11T22:17:10.937Z,4.67
2019-03-11T22:19:41.519Z,5.50
2019-03-11T22:22:15.931Z,7.00
2019-03-11T22:24:48.009Z,7.27
2019-03-11T22:27:18.586Z,8.57
2019-03-11T22:29:49.080Z,7.80
2019-03-11T22:32:21.233Z,6.60
2019-03-11T22:34:54.191Z,5.47
2019-03-11T22:37:24.831Z,5.07
2019-03-11T22:39:55.637Z,3.87
2019-03-11T22:42:26.129Z,4.00
2019-03-11T22:44:56.600Z,3.57
2019-03-11T22:50:40.214Z,4.67
2019-03-11T22:53:10.701Z,4.63
2019-03-11T22:55:41.219Z,5.17
2019-03-11T22:58:12.609Z,4.83
2019-03-11T23:00:56.212Z,4.30
2019-03-11T23:03:27.182Z,4.30
2019-03-11T23:05:58.707Z,4.80
2019-03-11T23:08:29.415Z,5.70
2019-03-11T23:10:59.913Z,4.40
2019-03-11T23:13:30.412Z,3.90
2019-03-11T23:16:02.319Z,4.60
2019-03-11T23:18:32.868Z,4.37
2019-03-11T23:21:03.384Z,5.30
2019-03-11T23:23:34.004Z,5.10
2019-03-11T23:26:04.486Z,5.83
2019-03-11T23:28:35.005Z,5.77
2019-03-11T23:31:05.487Z,5.40
2019-03-11T23:33:35.977Z,6.67
2019-03-11T23:36:07.419Z,6.47
2019-03-11T23:38:37.959Z,7.00
2019-03-11T23:41:08.419Z,6.80
2019-03-11T23:43:38.884Z,8.00
2019-03-11T23:46:09.247Z,7.20
2019-03-11T23:48:39.739Z,8.10
2019-03-11T23:51:10.222Z,7.23
2019-03-11T23:53:40.634Z,6.23
2019-03-11T23:56:11.096Z,6.17
2019-03-11T23:58:41.545Z,7.03
